Bridlington Mrsc, United Kingdom
Current Conditions -  °F | °C
As of 2:50 PM on Friday 28 Nov 2014 (Local Time) from EGXV Reporting Station
Haze Haze  
Wind Chill: 52°   Ceiling: 400
Heat Index: 52°   Visibility: 2.9mi
Dew Point: 50°   Wind: 8mph
Humidity: 94%   Direction: 90°E
Pressure: 29.71"   Gusts: NA
Location:  54.1°N, 0.17°W
Report Text: EGXV 281350Z AUTO 09007KT 4700 BR OVC004/// 11/10 Q1006 RERA
Loading
Personal Weather Stations






























Interactive Weather Map New forecast layout! Learn more

10-Day Weather Forecast

Advertisements
Track Severe Weather on mobile